»·PEaware :: N698J KMAF-KPHX

N698J :: KMAF-KPHX

FLIGHT INFORMATION

Flight Status: Arrived
Operator: Privately registered:
United States
More flights under this callsign
Pilot: Ahmad S. (5672)
Aircraft: BEECH AIRCRAFT BARON
(BE58)
More flights by this aircraft type
Origin: KMAF Midland Intl
United States
Destination: KPHX Phoenix Sky Harbor Intl
United States
More flights between these airports :: More routes between these airports
Route: INK V94 SSO KOOLY4
File this flight plan on PilotEdge
Remarks:
Altitude:
(Current/Filed)
10,000ft
Speed:
(Current/Filed)
185kts
Departed: 14-Feb-16 12:08 PM
Arrived: 14-Feb-16 03:19 PM
Distance/Time
Traveled:
503nm/3:11
Distance/Time
To Go:
Arrived

Flight Plot

Page will automatically refresh every two minutes.


Map Options




Map Legend


Flown Route
Filed Route
Departure Airport
Arrival Airport
Navaid (VOR, NDB)
Fix

Horizontal Profiles

Position Reports

Time Latitude Longitude Heading Altitude Ground
Speed
14-Feb-16 11:56 31.941987 -102.209090 176 2874ft 0kts
14-Feb-16 11:57 31.941986 -102.209090 176 2874ft 0kts
14-Feb-16 11:58 31.942507 -102.208380 61 2874ft 13kts
14-Feb-16 11:59 31.939587 -102.204786 170 2874ft 18kts
14-Feb-16 12:00 31.933529 -102.203645 85 2874ft 0kts
14-Feb-16 12:01 31.933535 -102.203394 89 2874ft 9kts
14-Feb-16 12:02 31.945640 -102.203906 356 2977ft 103kts
14-Feb-16 12:03 31.979431 -102.207247 354 3835ft 141kts
14-Feb-16 12:04 32.004474 -102.240500 271 4531ft 166kts
14-Feb-16 12:05 31.996480 -102.295190 267 5259ft 172kts
14-Feb-16 12:06 31.991959 -102.353939 271 5753ft 185kts
14-Feb-16 12:07 31.988054 -102.414609 268 6251ft 185kts
14-Feb-16 12:08 31.981390 -102.474178 264 6741ft 183kts
14-Feb-16 12:09 31.971898 -102.532204 261 7228ft 178kts
14-Feb-16 12:10 31.962236 -102.589444 262 7766ft 179kts
14-Feb-16 12:11 31.954346 -102.645818 264 8195ft 170kts
14-Feb-16 12:12 31.947754 -102.701160 265 8606ft 173kts
14-Feb-16 12:13 31.940884 -102.756029 264 8983ft 167kts
14-Feb-16 12:14 31.933437 -102.808829 263 9392ft 167kts
14-Feb-16 12:15 31.925889 -102.862522 264 9783ft 158kts
14-Feb-16 12:16 31.919111 -102.914571 264 10012ft 168kts
14-Feb-16 12:17 31.911814 -102.969431 264 10001ft 168kts
14-Feb-16 12:18 31.904276 -103.024755 264 10003ft 177kts
14-Feb-16 12:19 31.896450 -103.082255 264 10002ft 181kts
14-Feb-16 12:20 31.888802 -103.139741 264 10001ft 179kts
14-Feb-16 12:21 31.881150 -103.196386 265 9998ft 172kts
14-Feb-16 12:22 31.876904 -103.252315 272 10001ft 173kts
14-Feb-16 12:23 31.874903 -103.308082 270 10001ft 169kts
14-Feb-16 12:24 31.871662 -103.363603 269 10004ft 171kts
14-Feb-16 12:25 31.868233 -103.419551 269 10005ft 172kts
14-Feb-16 12:26 31.864771 -103.476305 270 10005ft 178kts
14-Feb-16 12:27 31.861180 -103.533155 269 10008ft 171kts
14-Feb-16 12:28 31.857492 -103.588613 269 10011ft 170kts
14-Feb-16 12:29 31.853950 -103.645206 270 10021ft 179kts
14-Feb-16 12:30 31.850359 -103.702987 269 10015ft 177kts
14-Feb-16 12:31 31.846607 -103.760599 270 10024ft 179kts
14-Feb-16 12:32 31.842741 -103.817507 269 10026ft 170kts
14-Feb-16 12:33 31.838886 -103.872424 269 10033ft 168kts
14-Feb-16 12:34 31.835159 -103.927488 270 10024ft 168kts
14-Feb-16 12:35 31.831491 -103.982900 270 10026ft 171kts
14-Feb-16 12:36 31.827761 -104.038872 269 10026ft 170kts
14-Feb-16 12:37 31.823955 -104.094461 269 10024ft 170kts
14-Feb-16 12:38 31.820239 -104.151214 270 10019ft 180kts
14-Feb-16 12:39 31.816353 -104.208856 269 10021ft 175kts
14-Feb-16 12:40 31.812300 -104.265116 269 10044ft 170kts
14-Feb-16 12:41 31.808370 -104.321779 269 10055ft 179kts
14-Feb-16 12:42 31.804410 -104.379122 269 10062ft 174kts
14-Feb-16 12:43 31.800336 -104.435681 268 10073ft 175kts
14-Feb-16 12:44 31.796308 -104.492958 269 10082ft 178kts
14-Feb-16 12:45 31.792257 -104.551568 269 9988ft 182kts
14-Feb-16 12:46 31.788027 -104.610399 268 10005ft 181kts
14-Feb-16 12:47 31.783726 -104.668539 268 9996ft 180kts
14-Feb-16 12:48 31.779395 -104.726770 268 9999ft 180kts
14-Feb-16 12:49 31.775056 -104.785192 268 10012ft 181kts
14-Feb-16 12:50 31.770643 -104.844003 268 10008ft 182kts
14-Feb-16 12:51 31.766868 -104.892709 268 10018ft 178kts
14-Feb-16 12:52 31.761479 -104.959243 267 10016ft 173kts
14-Feb-16 12:53 31.757544 -105.006585 267 10016ft 175kts
14-Feb-16 12:54 31.752246 -105.063972 266 10017ft 180kts
14-Feb-16 12:55 31.758447 -105.121566 285 10014ft 182kts
14-Feb-16 12:56 31.769028 -105.178633 284 9968ft 175kts
14-Feb-16 12:57 31.778849 -105.234798 284 9963ft 176kts
14-Feb-16 12:58 31.788875 -105.291655 284 9957ft 181kts
14-Feb-16 12:59 31.799104 -105.349484 284 9955ft 183kts
14-Feb-16 13:00 31.809139 -105.407080 283 9990ft 177kts
14-Feb-16 13:01 31.819052 -105.464499 284 9999ft 184kts
14-Feb-16 13:02 31.829188 -105.522563 283 9997ft 179kts
14-Feb-16 13:03 31.839133 -105.580380 284 9995ft 184kts
14-Feb-16 13:04 31.849047 -105.638060 283 9988ft 176kts
14-Feb-16 13:05 31.858598 -105.694724 283 9999ft 177kts
14-Feb-16 13:06 31.868263 -105.751390 283 9973ft 176kts
14-Feb-16 13:07 31.877868 -105.807948 283 9967ft 176kts
14-Feb-16 13:08 31.887541 -105.864767 283 9971ft 179kts
14-Feb-16 13:09 31.897387 -105.922336 283 9966ft 184kts
14-Feb-16 13:10 31.907062 -105.979983 283 9978ft 174kts
14-Feb-16 13:11 31.916242 -106.036076 283 9993ft 173kts
14-Feb-16 13:12 31.925649 -106.092564 283 9996ft 179kts
14-Feb-16 13:13 31.935117 -106.149952 283 9994ft 179kts
14-Feb-16 13:14 31.944287 -106.207247 282 9993ft 186kts
14-Feb-16 13:15 31.953315 -106.266473 287 9991ft 179kts
14-Feb-16 13:16 31.968816 -106.322652 289 9992ft 185kts
14-Feb-16 13:17 31.983695 -106.380424 288 9992ft 186kts
14-Feb-16 13:18 31.997753 -106.437315 287 9989ft 178kts
14-Feb-16 13:19 32.011359 -106.492595 288 9995ft 185kts
14-Feb-16 13:20 32.026010 -106.551517 288 9997ft 185kts
14-Feb-16 13:21 32.040096 -106.608884 288 10001ft 182kts
14-Feb-16 13:22 32.053669 -106.664897 287 10004ft 174kts
14-Feb-16 13:23 32.067447 -106.721241 288 10014ft 184kts
14-Feb-16 13:24 32.081499 -106.778266 287 10016ft 180kts
14-Feb-16 13:25 32.095292 -106.834936 287 10021ft 182kts
14-Feb-16 13:26 32.109017 -106.891480 287 10014ft 179kts
14-Feb-16 13:27 32.122900 -106.948510 288 10019ft 185kts
14-Feb-16 13:28 32.137051 -107.006436 287 10011ft 186kts
14-Feb-16 13:29 32.151037 -107.064335 287 9999ft 184kts
14-Feb-16 13:30 32.164977 -107.122239 287 9998ft 186kts
14-Feb-16 13:31 32.178925 -107.180203 287 9998ft 186kts
14-Feb-16 13:32 32.192640 -107.237808 287 9997ft 181kts
14-Feb-16 13:33 32.205951 -107.294256 287 10000ft 177kts
14-Feb-16 13:34 32.219072 -107.349962 287 10000ft 174kts
14-Feb-16 13:35 32.232508 -107.406415 287 9999ft 184kts
14-Feb-16 13:36 32.245996 -107.463579 287 10001ft 180kts
14-Feb-16 13:37 32.259009 -107.520225 286 10001ft 179kts
14-Feb-16 13:38 32.271338 -107.576494 285 10002ft 174kts
14-Feb-16 13:39 32.278771 -107.633677 275 10005ft 179kts
14-Feb-16 13:40 32.280357 -107.693082 273 9997ft 183kts
14-Feb-16 13:41 32.280807 -107.753133 272 9994ft 187kts
14-Feb-16 13:42 32.280834 -107.812595 272 9994ft 177kts
14-Feb-16 13:43 32.280823 -107.871893 272 9996ft 184kts
14-Feb-16 13:44 32.280908 -107.931672 272 9997ft 182kts
14-Feb-16 13:45 32.280869 -107.991119 272 10004ft 182kts
14-Feb-16 13:46 32.280579 -108.048788 272 10009ft 170kts
14-Feb-16 13:47 32.280213 -108.104189 272 10019ft 167kts
14-Feb-16 13:48 32.280050 -108.159463 272 10030ft 168kts
14-Feb-16 13:49 32.279959 -108.214894 272 10035ft 168kts
14-Feb-16 13:50 32.279977 -108.271588 272 10033ft 176kts
14-Feb-16 13:51 32.279997 -108.319730 272 10035ft 179kts
14-Feb-16 13:52 32.279820 -108.377557 272 10033ft 172kts
14-Feb-16 13:53 32.279431 -108.433935 272 10031ft 170kts
14-Feb-16 13:54 32.279240 -108.490853 272 10038ft 179kts
14-Feb-16 13:55 32.279109 -108.548991 272 9994ft 173kts
14-Feb-16 13:56 32.278678 -108.605644 272 9995ft 174kts
14-Feb-16 13:57 32.278459 -108.663693 272 10004ft 181kts
14-Feb-16 13:58 32.278173 -108.722362 271 9992ft 174kts
14-Feb-16 13:59 32.277648 -108.779677 272 9999ft 177kts
14-Feb-16 14:00 32.277223 -108.837269 272 9995ft 173kts
14-Feb-16 14:01 32.276777 -108.895082 272 9998ft 180kts
14-Feb-16 14:02 32.276430 -108.954425 272 9999ft 184kts
14-Feb-16 14:03 32.275889 -109.014099 272 9997ft 181kts
14-Feb-16 14:04 32.275106 -109.072409 271 9990ft 173kts
14-Feb-16 14:05 32.274239 -109.129377 271 9998ft 174kts
14-Feb-16 14:06 32.273382 -109.187743 271 9980ft 184kts
14-Feb-16 14:07 32.271593 -109.247520 270 9976ft 183kts
14-Feb-16 14:08 32.283889 -109.304596 288 9974ft 182kts
14-Feb-16 14:09 32.298091 -109.361035 287 9966ft 177kts
14-Feb-16 14:10 32.311479 -109.416362 287 9968ft 174kts
14-Feb-16 14:11 32.325050 -109.471963 288 9968ft 182kts
14-Feb-16 14:12 32.338854 -109.528376 287 9965ft 176kts
14-Feb-16 14:13 32.352311 -109.584222 288 9969ft 179kts
14-Feb-16 14:14 32.365604 -109.639343 287 9969ft 172kts
14-Feb-16 14:15 32.378770 -109.694526 287 9970ft 172kts
14-Feb-16 14:16 32.392156 -109.749788 287 9969ft 180kts
14-Feb-16 14:17 32.405740 -109.805889 287 9967ft 175kts
14-Feb-16 14:18 32.419218 -109.862058 287 9977ft 182kts
14-Feb-16 14:19 32.432449 -109.917216 287 9971ft 174kts
14-Feb-16 14:20 32.445687 -109.973524 287 9998ft 172kts
14-Feb-16 14:21 32.458836 -110.028713 287 9979ft 176kts
14-Feb-16 14:22 32.472440 -110.085301 287 9980ft 182kts
14-Feb-16 14:23 32.486118 -110.142650 287 9979ft 180kts
14-Feb-16 14:24 32.499749 -110.200223 287 10003ft 187kts
14-Feb-16 14:25 32.513735 -110.259039 287 10002ft 188kts
14-Feb-16 14:26 32.527192 -110.316946 286 9998ft 177kts
14-Feb-16 14:27 32.540477 -110.374249 287 10013ft 187kts
14-Feb-16 14:28 32.554203 -110.433038 286 10009ft 187kts
14-Feb-16 14:29 32.567076 -110.491430 284 10013ft 181kts
14-Feb-16 14:30 32.576883 -110.549360 285 10012ft 177kts
14-Feb-16 14:31 32.594042 -110.604886 300 10016ft 185kts
14-Feb-16 14:32 32.620226 -110.656085 303 10013ft 181kts
14-Feb-16 14:33 32.646843 -110.706551 303 10001ft 181kts
14-Feb-16 14:34 32.673249 -110.756612 303 9999ft 178kts
14-Feb-16 14:35 32.699449 -110.806283 303 9999ft 177kts
14-Feb-16 14:36 32.725435 -110.855540 303 9999ft 175kts
14-Feb-16 14:37 32.751931 -110.905719 303 9997ft 185kts
14-Feb-16 14:38 32.777239 -110.956723 301 9993ft 175kts
14-Feb-16 14:39 32.802864 -111.007445 302 9997ft 185kts
14-Feb-16 14:40 32.829316 -111.059584 302 9999ft 186kts
14-Feb-16 14:41 32.855367 -111.110954 302 9999ft 178kts
14-Feb-16 14:42 32.879092 -111.163587 299 10006ft 184kts
14-Feb-16 14:43 32.902820 -111.217078 299 10006ft 186kts
14-Feb-16 14:44 32.926651 -111.270718 299 9998ft 186kts
14-Feb-16 14:45 32.950533 -111.324448 299 10000ft 185kts
14-Feb-16 14:46 32.974491 -111.378275 299 9995ft 185kts
14-Feb-16 14:47 32.998625 -111.430556 302 9996ft 177kts
14-Feb-16 14:48 33.023955 -111.480898 302 9997ft 177kts
14-Feb-16 14:49 33.048635 -111.531322 301 9995ft 174kts
14-Feb-16 14:50 33.072974 -111.581590 301 9862ft 181kts
14-Feb-16 14:51 33.099816 -111.636215 301 9275ft 199kts
14-Feb-16 14:52 33.128364 -111.693381 301 8663ft 203kts
14-Feb-16 14:53 33.157654 -111.751872 301 8053ft 207kts
14-Feb-16 14:54 33.186990 -111.810868 300 7442ft 207kts
14-Feb-16 14:55 33.215084 -111.869739 300 6999ft 197kts
14-Feb-16 14:56 33.241307 -111.925251 300 6980ft 190kts
14-Feb-16 14:57 33.262751 -111.970717 300 6983ft 187kts
14-Feb-16 14:58 33.288167 -112.024967 300 6979ft 186kts
14-Feb-16 14:59 33.326866 -112.031721 61 6864ft 193kts
14-Feb-16 15:00 33.330564 -111.964480 87 6298ft 209kts
14-Feb-16 15:01 33.330633 -111.894935 87 5696ft 212kts
14-Feb-16 15:02 33.330676 -111.867883 87 5436ft 208kts
14-Feb-16 15:03 33.330769 -111.803164 87 4777ft 208kts
14-Feb-16 15:04 33.350405 -111.745496 15 4073ft 200kts
14-Feb-16 15:05 33.401174 -111.739257 353 3987ft 173kts
14-Feb-16 15:06 33.426806 -111.773593 288 3975ft 127kts
14-Feb-16 15:07 33.431041 -111.812948 272 4001ft 115kts
14-Feb-16 15:08 33.428904 -111.851639 269 3670ft 118kts
14-Feb-16 15:09 33.428478 -111.892159 273 2981ft 124kts
14-Feb-16 15:10 33.428950 -111.929264 272 2327ft 105kts
14-Feb-16 15:11 33.428919 -111.964170 270 1786ft 104kts
14-Feb-16 15:12 33.428849 -111.998802 269 1237ft 103kts
14-Feb-16 15:13 33.428715 -112.016407 232 1138ft 10kts
14-Feb-16 15:14 33.427732 -112.015665 96 1138ft 12kts
14-Feb-16 15:15 33.426456 -112.012853 88 1138ft 0kts
14-Feb-16 15:16 33.426456 -112.012853 88 1138ft 0kts
14-Feb-16 15:17 33.426456 -112.012853 88 1138ft 0kts
14-Feb-16 15:18 33.426456 -112.012853 88 1138ft 0kts
14-Feb-16 15:19 33.426456 -112.012853 88 1138ft 0kts
14-Feb-16 15:20 33.426456 -112.012853 88 1138ft 0kts
14-Feb-16 15:21 33.426456 -112.012853 88 1138ft 0kts
14-Feb-16 15:22 33.426456 -112.012853 88 1138ft 0kts
14-Feb-16 15:23 33.426456 -112.012853 88 1138ft 0kts
14-Feb-16 15:24 33.426456 -112.012853 88 1138ft 0kts
14-Feb-16 15:25 33.426456 -112.012853 88 1138ft 0kts

Navigation Log

Ident Type
Flight plan parsing failed, navigation log unavailable